Time;durP1;ratioP1;P1;durP2;ratioP2;P2;SDS_P1;SDS_P2;PMS_P1;PMS_P2;Temp;Humidity;BMP_temperature;BMP_pressure;BME280_temperature;BME280_humidity;BME280_pressure;Samples;Min_cycle;Max_cycle;Signal;HPM_P1;HPM_P2
2023/11/19 00:01:05;;;;;;;3.97;3.00;;;;;;;3.55;64.59;94573.69;4191718;28;20052;-70
2023/11/19 00:03:08;;;;;;;3.67;3.10;;;;;;;3.51;64.56;94567.94;4196438;28;20055;-69
2023/11/19 00:05:13;;;;;;;4.35;2.88;;;;;;;3.44;64.53;94572.78;4194796;28;20099;-67
2023/11/19 00:07:16;;;;;;;3.78;3.05;;;;;;;3.49;64.59;94572.41;4196309;28;20044;-69
2023/11/19 00:09:22;;;;;;;3.67;3.00;;;;;;;3.56;64.39;94564.97;4178967;28;20411;-67
2023/11/19 00:11:24;;;;;;;3.30;2.72;;;;;;;3.56;64.22;94564.97;4180126;28;20134;-67
2023/11/19 00:13:26;;;;;;;2.95;2.65;;;;;;;3.44;63.89;94569.34;4195819;28;20052;-70
2023/11/19 00:15:28;;;;;;;4.45;3.05;;;;;;;3.53;64.09;94558.28;4195515;28;20048;-69
2023/11/19 00:17:30;;;;;;;3.50;3.08;;;;;;;3.48;63.93;94570.75;4195692;28;20475;-69
2023/11/19 00:19:32;;;;;;;3.55;2.88;;;;;;;3.50;63.99;94568.88;4151347;28;20077;-69
2023/11/19 00:21:33;;;;;;;3.60;2.90;;;;;;;3.59;63.60;94565.59;4185506;28;20095;-69
2023/11/19 00:23:36;;;;;;;3.70;2.90;;;;;;;3.54;63.69;94577.22;4196057;28;20109;-69
2023/11/19 00:25:38;;;;;;;3.78;3.15;;;;;;;3.65;63.54;94572.03;4196215;28;20087;-69
2023/11/19 00:27:44;;;;;;;3.90;3.10;;;;;;;3.52;64.06;94566.97;4192803;28;20127;-69
2023/11/19 00:29:46;;;;;;;6.93;3.35;;;;;;;3.48;64.13;94589.72;4184833;28;20090;-69
2023/11/19 00:31:48;;;;;;;4.82;3.38;;;;;;;3.56;63.67;94560.63;4188965;28;20080;-69
2023/11/19 00:33:51;;;;;;;3.67;2.92;;;;;;;3.57;63.45;94576.97;4181584;28;20049;-69
2023/11/19 00:35:53;;;;;;;3.63;2.92;;;;;;;3.56;63.55;94570.97;4194289;28;20435;-70
2023/11/19 00:37:55;;;;;;;3.75;3.15;;;;;;;3.51;64.03;94583.47;4178163;28;20049;-68
2023/11/19 00:39:57;;;;;;;3.72;3.08;;;;;;;3.53;63.73;94576.41;4169086;28;20127;-69
2023/11/19 00:42:01;;;;;;;3.30;2.80;;;;;;;3.47;64.44;94582.88;4195077;28;20140;-67
2023/11/19 00:44:03;;;;;;;3.72;3.00;;;;;;;3.43;64.03;94576.28;4194513;28;20068;-66
2023/11/19 00:46:07;;;;;;;3.90;3.30;;;;;;;3.45;64.28;94577.00;4194276;28;20583;-69
2023/11/19 00:48:09;;;;;;;4.25;3.28;;;;;;;3.50;64.20;94579.22;4146937;28;20468;-70
2023/11/19 00:50:14;;;;;;;4.13;3.45;;;;;;;3.48;64.42;94573.34;4188294;28;20075;-69
2023/11/19 00:52:16;;;;;;;3.22;2.92;;;;;;;3.45;64.11;94565.81;4175161;28;20048;-70
2023/11/19 00:54:18;;;;;;;3.85;3.15;;;;;;;3.41;64.70;94585.94;4192581;28;20127;-68
2023/11/19 00:56:20;;;;;;;3.92;3.10;;;;;;;3.34;64.60;94563.25;4179950;28;20048;-69
2023/11/19 00:58:23;;;;;;;3.70;3.28;;;;;;;3.27;64.63;94578.44;4168071;28;20048;-68
2023/11/19 01:00:27;;;;;;;3.80;3.05;;;;;;;3.31;64.80;94566.06;4195644;28;20057;-68
2023/11/19 01:02:29;;;;;;;3.30;2.70;;;;;;;3.32;64.93;94573.72;4193408;28;20098;-68
2023/11/19 01:04:35;;;;;;;3.78;3.10;;;;;;;3.37;64.61;94565.59;4177604;28;20126;-66
2023/11/19 01:06:37;;;;;;;3.97;3.30;;;;;;;3.31;64.63;94573.81;4185526;28;20057;-69
2023/11/19 01:08:50;;;;;;;3.92;3.15;;;;;;;3.38;64.25;94582.78;4176323;28;20055;-69
2023/11/19 01:10:51;;;;;;;4.40;3.10;;;;;;;3.23;64.73;94582.19;4197266;28;20049;-67
2023/11/19 01:12:55;;;;;;;3.10;2.80;;;;;;;3.33;65.08;94584.88;4176171;28;20389;-68
2023/11/19 01:14:57;;;;;;;3.55;3.08;;;;;;;3.24;64.95;94587.22;4194912;28;20151;-66
2023/11/19 01:17:00;;;;;;;6.45;2.90;;;;;;;3.14;64.89;94591.50;4195784;28;20082;-66
2023/11/19 01:19:04;;;;;;;4.75;2.67;;;;;;;3.16;64.97;94579.25;4171635;28;20357;-68
2023/11/19 01:21:18;;;;;;;3.95;2.80;;;;;;;3.24;64.99;94581.25;4194144;28;20128;-69
2023/11/19 01:23:20;;;;;;;4.00;3.00;;;;;;;3.31;64.96;94590.16;4193127;28;20064;-68
2023/11/19 01:25:22;;;;;;;3.63;3.00;;;;;;;3.16;65.19;94579.25;4195536;28;20055;-69
2023/11/19 01:27:24;;;;;;;4.28;2.72;;;;;;;3.25;65.03;94580.31;4196208;22;20041;-78
2023/11/19 01:29:26;;;;;;;4.22;2.92;;;;;;;3.26;64.80;94587.94;4176138;28;20156;-80
2023/11/19 01:31:28;;;;;;;3.53;2.75;;;;;;;3.33;64.42;94579.72;4171697;28;20052;-79
2023/11/19 01:33:29;;;;;;;3.42;2.80;;;;;;;3.35;64.61;94594.19;4186109;28;20047;-79
2023/11/19 01:35:31;;;;;;;4.28;2.85;;;;;;;3.36;64.02;94589.84;4195696;28;20136;-78
2023/11/19 01:37:35;;;;;;;3.58;2.88;;;;;;;3.30;64.03;94593.72;4193794;28;20041;-79
2023/11/19 01:39:37;;;;;;;5.25;2.63;;;;;;;3.43;63.59;94603.97;4166221;28;20092;-80
2023/11/19 01:41:38;;;;;;;3.53;2.80;;;;;;;3.53;63.30;94610.09;4177441;28;20053;-79
2023/11/19 01:43:47;;;;;;;3.53;2.72;;;;;;;3.49;63.11;94598.31;4178875;28;20061;-80
2023/11/19 01:45:50;;;;;;;3.00;2.70;;;;;;;3.43;63.12;94589.25;4176622;28;20096;-79
2023/11/19 01:47:52;;;;;;;3.08;2.58;;;;;;;3.45;62.96;94578.78;4159120;28;20046;-79
2023/11/19 01:49:54;;;;;;;3.00;2.60;;;;;;;3.35;63.37;94601.13;4171927;28;20415;-80
2023/11/19 01:51:57;;;;;;;3.60;2.90;;;;;;;3.37;63.58;94594.06;4160474;28;20289;-81
2023/11/19 01:53:59;;;;;;;3.15;2.80;;;;;;;3.32;62.83;94604.78;4178958;28;20128;-82
2023/11/19 01:56:01;;;;;;;3.17;2.78;;;;;;;3.32;63.26;94603.97;4169735;28;20118;-79
2023/11/19 01:58:03;;;;;;;3.55;2.95;;;;;;;3.31;63.02;94604.88;4157096;28;20053;-80
2023/11/19 02:00:06;;;;;;;3.40;2.63;;;;;;;3.34;63.05;94596.91;4184657;28;20290;-77
2023/11/19 02:02:08;;;;;;;3.40;3.10;;;;;;;3.21;62.80;94622.91;4183785;28;20029;-80
2023/11/19 02:04:11;;;;;;;3.08;2.60;;;;;;;3.29;63.39;94605.00;4193986;28;20065;-78
2023/11/19 02:06:13;;;;;;;3.60;3.10;;;;;;;3.32;63.17;94603.97;4170589;28;20049;-76
2023/11/19 02:08:15;;;;;;;3.10;2.42;;;;;;;3.27;62.77;94581.03;4173355;28;20049;-79
2023/11/19 02:10:19;;;;;;;4.28;2.80;;;;;;;3.30;62.64;94605.84;4178301;28;20045;-79
2023/11/19 02:12:20;;;;;;;;;;;;;;;3.32;62.94;94598.78;4177313;28;20049;-78
2023/11/19 02:14:25;;;;;;;4.07;2.58;;;;;;;3.20;62.94;94591.00;4177841;28;19925;-77
2023/11/19 02:16:27;;;;;;;3.45;2.65;;;;;;;3.26;62.59;94595.72;4177772;28;20061;-79
2023/11/19 02:18:29;;;;;;;3.95;2.75;;;;;;;3.25;62.77;94593.25;4179024;28;20216;-78
2023/11/19 02:20:31;;;;;;;3.78;2.72;;;;;;;3.28;62.79;94591.25;4178241;28;20131;-78
2023/11/19 02:22:33;;;;;;;2.88;2.47;;;;;;;3.37;62.80;94587.13;4178012;28;20053;-78
2023/11/19 02:24:35;;;;;;;3.25;2.80;;;;;;;3.42;62.87;94590.19;4175727;28;20045;-79
2023/11/19 02:26:42;;;;;;;3.08;2.58;;;;;;;3.36;62.24;94588.06;4165656;28;20091;-78
2023/11/19 02:28:44;;;;;;;3.08;2.60;;;;;;;3.28;62.83;94591.25;4161009;28;20103;-78
2023/11/19 02:30:46;;;;;;;3.30;2.72;;;;;;;3.34;62.81;94594.31;4163598;28;20068;-79
2023/11/19 02:32:48;;;;;;;3.92;2.92;;;;;;;3.34;62.70;94581.38;4178292;28;20045;-77
2023/11/19 02:34:50;;;;;;;3.50;3.00;;;;;;;3.39;62.42;94581.84;4175801;28;20049;-80
2023/11/19 02:36:53;;;;;;;4.32;2.88;;;;;;;3.43;62.53;94570.28;4180684;28;20095;-78
2023/11/19 02:38:55;;;;;;;3.70;3.03;;;;;;;3.38;62.39;94577.59;4180680;28;20053;-80
2023/11/19 02:40:57;;;;;;;3.40;2.72;;;;;;;3.30;62.46;94573.00;4175638;28;20068;-79
2023/11/19 02:42:59;;;;;;;3.80;2.85;;;;;;;3.24;62.67;94576.06;4169217;28;20208;-80
2023/11/19 02:45:02;;;;;;;3.25;2.60;;;;;;;3.20;63.20;94567.69;4162463;28;20507;-79
2023/11/19 02:47:07;;;;;;;6.75;3.28;;;;;;;3.20;62.64;94578.06;4179613;28;20368;-78
2023/11/19 02:49:09;;;;;;;4.57;3.00;;;;;;;3.22;62.95;94583.94;4178930;28;20370;-79
2023/11/19 02:51:12;;;;;;;3.40;2.95;;;;;;;3.19;62.82;94591.13;4162274;28;20049;-78
2023/11/19 02:53:13;;;;;;;4.00;2.72;;;;;;;3.13;63.11;94589.00;4180193;28;20107;-79
2023/11/19 02:55:17;;;;;;;3.72;2.70;;;;;;;3.18;63.19;94582.53;4180815;28;20055;-78
2023/11/19 02:57:20;;;;;;;4.15;2.90;;;;;;;3.08;63.08;94582.41;4178406;28;20073;-79
2023/11/19 02:59:38;;;;;;;6.05;3.00;;;;;;;3.06;63.11;94593.81;4168868;28;20099;-76
2023/11/19 03:01:43;;;;;;;5.90;2.80;;;;;;;3.11;63.32;94586.53;4180371;28;20067;-78
2023/11/19 03:03:49;;;;;;;3.63;2.97;;;;;;;3.13;62.72;94583.84;4181173;28;20088;-79
2023/11/19 03:05:51;;;;;;;3.47;2.70;;;;;;;3.10;63.12;94579.72;4171991;28;20445;-79
2023/11/19 03:07:53;;;;;;;2.88;2.40;;;;;;;3.10;63.03;94591.81;4180341;28;20041;-79
2023/11/19 03:09:55;;;;;;;3.55;2.70;;;;;;;3.14;62.91;94596.66;4179768;28;20052;-79
2023/11/19 03:11:57;;;;;;;3.72;3.00;;;;;;;3.20;62.76;94601.34;4173694;28;20102;-80
2023/11/19 03:13:58;;;;;;;4.07;2.88;;;;;;;3.23;62.62;94606.31;4180092;28;20417;-79
2023/11/19 03:16:00;;;;;;;3.20;2.75;;;;;;;3.19;62.79;94609.25;4162481;28;20071;-77
2023/11/19 03:18:03;;;;;;;3.70;2.95;;;;;;;3.25;62.71;94608.78;4179450;28;20079;-79
2023/11/19 03:20:06;;;;;;;3.45;2.90;;;;;;;3.22;62.51;94602.06;4179613;28;20052;-79
2023/11/19 03:22:10;;;;;;;4.18;3.15;;;;;;;3.24;63.00;94610.53;4179385;28;20122;-79
2023/11/19 03:24:15;;;;;;;3.45;2.80;;;;;;;3.22;62.62;94603.84;4159270;28;20177;-80
2023/11/19 03:26:17;;;;;;;4.22;3.13;;;;;;;3.18;63.10;94603.22;4159603;28;20063;-79
2023/11/19 03:28:19;;;;;;;4.03;3.13;;;;;;;3.22;63.22;94601.25;4180422;28;20128;-79
2023/11/19 03:30:21;;;;;;;3.70;3.00;;;;;;;3.21;62.79;94603.00;4180596;28;20084;-80
2023/11/19 03:32:35;;;;;;;4.03;3.20;;;;;;;3.17;62.96;94593.81;4179756;28;20090;-79
2023/11/19 03:34:37;;;;;;;6.80;3.00;;;;;;;3.14;62.84;94595.81;4180491;28;20059;-79
2023/11/19 03:36:39;;;;;;;6.18;3.08;;;;;;;3.17;63.19;94595.59;4179914;28;20141;-78
2023/11/19 03:38:42;;;;;;;3.20;2.67;;;;;;;3.16;63.15;94601.69;4180510;28;20387;-78
2023/11/19 03:40:44;;;;;;;4.45;3.03;;;;;;;3.07;62.74;94604.03;4163201;28;20057;-80
2023/11/19 03:42:46;;;;;;;4.35;3.15;;;;;;;3.14;62.93;94609.59;4180783;28;20049;-80
2023/11/19 03:44:49;;;;;;;3.70;2.97;;;;;;;3.13;62.77;94617.47;4162389;28;20064;-80
2023/11/19 03:46:51;;;;;;;2.92;2.58;;;;;;;3.09;63.15;94616.88;4180571;28;20236;-79
2023/11/19 03:48:53;;;;;;;3.78;3.08;;;;;;;3.11;62.69;94622.75;4181698;28;20045;-79
2023/11/19 03:50:55;;;;;;;4.25;3.28;;;;;;;3.02;63.68;94613.13;4181992;28;20571;-81
2023/11/19 03:52:57;;;;;;;4.50;3.25;;;;;;;3.02;63.65;94634.63;4162796;28;20135;-79
2023/11/19 03:54:58;;;;;;;3.40;3.00;;;;;;;3.07;63.42;94629.09;4161977;28;20088;-79
2023/11/19 03:57:03;;;;;;;4.72;3.25;;;;;;;2.97;63.31;94636.75;4178188;28;20045;-77
2023/11/19 03:59:05;;;;;;;3.20;2.72;;;;;;;3.06;63.25;94627.47;4161742;28;20307;-80
2023/11/19 04:01:13;;;;;;;4.72;3.08;;;;;;;2.98;63.40;94634.97;4172257;28;20041;-79
2023/11/19 04:03:15;;;;;;;4.18;2.97;;;;;;;2.98;63.32;94637.56;4188870;28;20054;-78
2023/11/19 04:05:18;;;;;;;3.80;2.85;;;;;;;2.96;63.40;94634.28;4178501;28;20446;-80
2023/11/19 04:07:21;;;;;;;3.83;2.95;;;;;;;2.97;63.56;94639.34;4162951;28;20159;-79
2023/11/19 04:09:22;;;;;;;3.63;3.00;;;;;;;2.88;63.91;94647.75;4161563;28;20370;-79
2023/11/19 04:11:24;;;;;;;4.25;2.80;;;;;;;2.81;64.20;94657.75;4178343;28;20063;-80
2023/11/19 04:13:26;;;;;;;3.40;2.58;;;;;;;2.75;64.38;94647.84;4178899;28;20084;-79
2023/11/19 04:15:29;;;;;;;5.53;3.22;;;;;;;2.80;64.38;94671.63;4161119;28;20092;-79
2023/11/19 04:17:30;;;;;;;3.28;2.70;;;;;;;2.84;63.89;94678.22;4179292;28;20079;-78
2023/11/19 04:19:32;;;;;;;4.93;3.45;;;;;;;2.81;64.17;94664.69;4176256;28;20083;-79
2023/11/19 04:21:34;;;;;;;4.00;3.10;;;;;;;2.85;64.16;94668.69;4176670;28;20440;-76
2023/11/19 04:23:36;;;;;;;3.95;3.40;;;;;;;2.84;63.92;94667.88;4174460;28;20467;-79
2023/11/19 04:25:38;;;;;;;4.60;3.28;;;;;;;2.97;63.82;94659.19;4180913;28;20103;-80
2023/11/19 04:27:40;;;;;;;2.92;2.60;;;;;;;3.05;63.55;94655.13;4161487;28;20055;-79
2023/11/19 04:29:41;;;;;;;4.00;2.95;;;;;;;3.16;63.29;94656.91;4180899;28;20060;-78
2023/11/19 04:31:46;;;;;;;4.78;2.83;;;;;;;3.17;62.84;94650.78;4180347;28;20427;-79
2023/11/19 04:33:48;;;;;;;3.67;2.85;;;;;;;3.22;62.92;94656.41;4185395;28;20052;-78
2023/11/19 04:35:50;;;;;;;4.63;3.00;;;;;;;3.20;62.18;94662.66;4193116;28;20045;-77
2023/11/19 04:37:52;;;;;;;3.67;2.88;;;;;;;3.11;62.74;94690.06;4197289;28;20106;-78
2023/11/19 04:39:54;;;;;;;4.03;2.90;;;;;;;3.18;62.60;94667.13;4195802;28;20081;-77
2023/11/19 04:41:55;;;;;;;3.90;2.78;;;;;;;3.08;62.51;94679.94;4188651;28;20072;-77
2023/11/19 04:43:57;;;;;;;3.95;3.20;;;;;;;3.17;62.51;94665.50;4192635;28;20044;-78
2023/11/19 04:45:59;;;;;;;4.05;2.72;;;;;;;3.23;62.44;94667.63;4185653;28;20507;-79
2023/11/19 04:48:01;;;;;;;4.90;3.10;;;;;;;3.25;62.25;94650.22;4169260;28;20076;-78
2023/11/19 04:50:03;;;;;;;4.15;2.58;;;;;;;3.20;62.26;94668.66;4180343;28;20071;-79
2023/11/19 04:52:05;;;;;;;4.30;3.00;;;;;;;3.19;62.12;94677.38;4179888;28;20499;-77
2023/11/19 04:54:08;;;;;;;3.95;3.10;;;;;;;3.22;61.73;94669.38;4182402;28;20045;-78
2023/11/19 04:56:11;;;;;;;3.73;3.30;;;;;;;3.27;61.89;94684.59;4179272;28;20044;-77
2023/11/19 04:58:13;;;;;;;3.85;2.90;;;;;;;3.30;61.06;94665.41;4177946;28;20060;-77
2023/11/19 05:00:14;;;;;;;3.60;2.78;;;;;;;3.33;61.81;94667.75;4178655;28;20049;-80
2023/11/19 05:02:18;;;;;;;3.60;2.75;;;;;;;3.30;61.79;94676.56;4168914;28;20049;-78
2023/11/19 05:04:19;;;;;;;3.70;3.25;;;;;;;3.36;61.85;94680.47;4182434;28;20176;-77
2023/11/19 05:06:21;;;;;;;3.30;2.85;;;;;;;3.35;61.61;94684.00;4177247;28;20096;-80
2023/11/19 05:08:24;;;;;;;3.58;3.10;;;;;;;3.35;61.67;94697.75;4180915;28;20438;-78
2023/11/19 05:10:25;;;;;;;4.25;3.45;;;;;;;3.41;61.35;94699.06;4184589;28;20132;-78
2023/11/19 05:12:27;;;;;;;3.80;2.97;;;;;;;3.42;61.54;94701.56;4163673;28;20075;-79
2023/11/19 05:14:29;;;;;;;3.80;3.08;;;;;;;3.39;61.32;94686.22;4170917;28;20125;-79
2023/11/19 05:16:31;;;;;;;4.80;3.38;;;;;;;3.37;61.89;94697.66;4152663;28;20137;-77
2023/11/19 05:18:33;;;;;;;4.20;3.28;;;;;;;3.40;61.39;94689.63;4186047;28;20168;-79
2023/11/19 05:20:35;;;;;;;3.58;3.08;;;;;;;3.44;61.45;94688.47;4165628;28;20046;-78
2023/11/19 05:22:37;;;;;;;3.88;3.08;;;;;;;3.35;60.98;94684.00;4192060;28;20451;-78
2023/11/19 05:24:40;;;;;;;5.68;3.28;;;;;;;3.36;61.43;94690.84;4160990;28;20072;-79
2023/11/19 05:26:42;;;;;;;4.80;3.20;;;;;;;3.32;61.68;94690.22;4183864;28;20056;-80
2023/11/19 05:28:44;;;;;;;4.25;3.28;;;;;;;3.35;61.49;94684.00;4169008;28;20049;-82
2023/11/19 05:30:46;;;;;;;4.65;3.38;;;;;;;3.25;61.34;94684.69;4175553;28;20440;-82
2023/11/19 05:32:47;;;;;;;5.18;2.85;;;;;;;3.14;61.99;94710.56;4163148;28;20068;-81
2023/11/19 05:34:49;;;;;;;3.88;3.10;;;;;;;3.12;62.09;94696.91;4164508;28;20049;-83
2023/11/19 05:36:53;;;;;;;;;;;;;;;3.11;61.63;94687.47;4135810;28;20130;-82
2023/11/19 05:38:55;;;;;;;3.70;3.17;;;;;;;3.13;62.32;94693.34;4163206;28;19979;-81
2023/11/19 05:40:57;;;;;;;3.67;2.85;;;;;;;3.08;62.10;94692.88;4163015;28;20081;-82
2023/11/19 05:42:59;;;;;;;3.95;3.00;;;;;;;3.11;62.19;94684.06;4163748;28;20045;-80
2023/11/19 05:45:01;;;;;;;4.03;2.92;;;;;;;3.14;61.86;94697.63;4165847;28;20054;-82
2023/11/19 05:47:04;;;;;;;5.18;3.10;;;;;;;3.08;62.10;94704.06;4170410;28;20046;-80
2023/11/19 05:49:06;;;;;;;3.65;3.30;;;;;;;3.21;62.25;94703.97;4155879;28;20109;-82
2023/11/19 05:51:07;;;;;;;3.75;3.33;;;;;;;3.08;62.39;94711.00;4147925;28;20217;-80
2023/11/19 05:53:10;;;;;;;3.78;3.03;;;;;;;3.00;62.42;94714.16;4148244;28;20042;-81
2023/11/19 05:55:12;;;;;;;3.60;2.95;;;;;;;3.00;62.10;94713.31;4158826;28;20133;-80
2023/11/19 05:57:18;;;;;;;3.92;3.05;;;;;;;2.90;63.16;94708.00;4162135;28;20045;-81
2023/11/19 05:59:22;;;;;;;4.55;3.35;;;;;;;3.04;62.72;94715.56;4156192;28;20045;-78
2023/11/19 06:01:24;;;;;;;4.35;3.40;;;;;;;2.98;62.78;94713.44;4149796;28;20057;-82
2023/11/19 06:03:26;;;;;;;6.60;3.05;;;;;;;3.08;62.34;94717.00;4147568;28;20065;-80
2023/11/19 06:05:28;;;;;;;3.83;3.33;;;;;;;3.05;62.12;94730.19;4165075;28;20049;-84
2023/11/19 06:07:30;;;;;;;4.82;3.00;;;;;;;2.91;63.01;94732.13;4159562;28;20111;-79
2023/11/19 06:09:33;;;;;;;6.32;3.60;;;;;;;2.76;63.50;94736.66;4150307;28;20081;-81
2023/11/19 06:11:35;;;;;;;8.65;3.67;;;;;;;2.84;63.27;94734.34;4176628;28;20083;-79
2023/11/19 06:13:37;;;;;;;5.38;3.80;;;;;;;2.91;62.70;94730.34;4167328;28;20060;-82
2023/11/19 06:15:41;;;;;;;4.60;3.60;;;;;;;3.04;62.74;94738.88;4166771;28;20088;-82
2023/11/19 06:17:42;;;;;;;4.85;3.75;;;;;;;3.00;62.42;94729.69;4155745;28;20065;-80
2023/11/19 06:19:44;;;;;;;5.00;3.58;;;;;;;2.81;63.02;94724.19;4164307;28;20144;-79
2023/11/19 06:21:46;;;;;;;5.30;3.95;;;;;;;2.82;63.88;94734.44;4162236;28;20084;-81
2023/11/19 06:23:49;;;;;;;3.92;3.20;;;;;;;2.82;63.44;94736.22;4158091;28;20053;-80
2023/11/19 06:25:50;;;;;;;4.38;3.40;;;;;;;2.70;63.64;94719.78;4154325;28;20480;-79
2023/11/19 06:27:52;;;;;;;4.95;3.20;;;;;;;2.69;63.47;94725.06;4168048;28;20148;-81
2023/11/19 06:29:54;;;;;;;5.20;3.35;;;;;;;2.76;63.76;94729.69;4181224;28;20136;-80
2023/11/19 06:31:57;;;;;;;3.80;3.22;;;;;;;2.80;63.34;94743.25;4181361;28;20204;-80
2023/11/19 06:33:58;;;;;;;6.15;3.40;;;;;;;2.84;63.00;94719.63;4172390;28;20064;-81
2023/11/19 06:36:00;;;;;;;5.00;3.20;;;;;;;2.91;63.24;94721.78;4161051;28;20068;-82
2023/11/19 06:38:04;;;;;;;3.78;3.15;;;;;;;2.81;62.71;94727.59;4182073;28;20060;-81
2023/11/19 06:40:09;;;;;;;4.72;3.53;;;;;;;2.84;62.93;94737.75;4182440;28;20045;-83
2023/11/19 06:42:11;;;;;;;6.30;3.90;;;;;;;2.77;62.79;94739.09;4180096;28;20456;-79
2023/11/19 06:44:13;;;;;;;5.18;3.53;;;;;;;2.83;63.14;94730.91;4181195;28;20151;-79
2023/11/19 06:46:18;;;;;;;4.43;3.70;;;;;;;2.73;63.20;94739.44;4180834;28;20045;-81
2023/11/19 06:48:20;;;;;;;4.72;3.65;;;;;;;2.66;63.29;94742.47;4177815;28;20131;-81
2023/11/19 06:50:23;;;;;;;5.15;3.55;;;;;;;2.75;62.77;94738.38;4180654;28;20139;-80
2023/11/19 06:52:25;;;;;;;5.53;3.60;;;;;;;2.78;62.72;94730.41;4181422;28;20061;-81
2023/11/19 06:54:27;;;;;;;4.43;3.58;;;;;;;2.69;63.08;94732.84;4152847;28;20127;-82
2023/11/19 06:56:29;;;;;;;4.82;4.22;;;;;;;2.86;63.13;94730.69;4163819;28;20104;-82
2023/11/19 06:58:36;;;;;;;6.50;3.88;;;;;;;2.71;63.04;94728.38;4165525;28;20439;-81
2023/11/19 07:00:38;;;;;;;4.82;3.72;;;;;;;2.68;63.04;94737.19;4181277;28;20482;-82
2023/11/19 07:02:40;;;;;;;5.03;4.35;;;;;;;2.78;62.60;94737.38;4181682;28;20053;-80
2023/11/19 07:04:42;;;;;;;6.40;4.13;;;;;;;2.71;62.63;94746.47;4181691;28;20144;-82
2023/11/19 07:06:44;;;;;;;5.15;3.92;;;;;;;2.82;62.33;94737.03;4180824;28;20052;-79
2023/11/19 07:08:46;;;;;;;4.70;3.90;;;;;;;2.75;62.48;94750.50;4180364;28;20071;-83
2023/11/19 07:10:48;;;;;;;7.30;4.47;;;;;;;2.78;62.67;94763.22;4180112;28;20056;-82
2023/11/19 07:12:50;;;;;;;4.85;4.20;;;;;;;2.87;62.25;94745.28;4160400;28;20080;-80
2023/11/19 07:14:52;;;;;;;7.75;4.47;;;;;;;2.90;62.24;94744.22;4178823;28;20148;-80
2023/11/19 07:16:55;;;;;;;9.60;4.30;;;;;;;2.85;62.13;94746.31;4180520;28;20407;-80
2023/11/19 07:18:58;;;;;;;7.80;3.78;;;;;;;2.82;62.03;94747.38;4162362;28;20123;-80
2023/11/19 07:21:00;;;;;;;5.37;3.90;;;;;;;2.58;62.42;94746.53;4180155;28;20045;-80
2023/11/19 07:23:02;;;;;;;4.85;4.13;;;;;;;2.73;62.32;94760.13;4181288;28;20415;-82
2023/11/19 07:25:05;;;;;;;4.78;3.90;;;;;;;2.55;62.88;94747.59;4182646;28;20206;-84
2023/11/19 07:27:08;;;;;;;5.78;3.85;;;;;;;2.65;62.38;94746.00;4173104;28;20507;-80
2023/11/19 07:29:10;;;;;;;6.40;4.22;;;;;;;2.62;62.67;94747.97;4165695;28;20038;-81
2023/11/19 07:31:12;;;;;;;5.50;4.05;;;;;;;2.70;62.64;94750.03;4176219;28;20052;-80
2023/11/19 07:33:14;;;;;;;6.13;4.20;;;;;;;2.73;62.37;94771.31;4200013;28;20025;-80
2023/11/19 07:35:17;;;;;;;5.25;4.55;;;;;;;2.81;62.68;94776.75;4199508;28;20057;-79
2023/11/19 07:37:19;;;;;;;7.55;4.00;;;;;;;2.98;61.51;94777.31;4165812;28;20042;-81
2023/11/19 07:39:20;;;;;;;5.15;4.00;;;;;;;2.93;61.29;94776.84;4182211;28;20077;-80
2023/11/19 07:41:23;;;;;;;5.47;4.40;;;;;;;2.96;61.30;94781.78;4198647;28;20045;-79
2023/11/19 07:43:24;;;;;;;6.25;4.43;;;;;;;2.95;61.75;94775.78;4164018;28;20048;-82
2023/11/19 07:45:27;;;;;;;5.18;4.07;;;;;;;2.95;61.29;94775.78;4167277;28;20056;-82
2023/11/19 07:47:29;;;;;;;5.45;3.97;;;;;;;2.99;61.52;94776.38;4163250;28;20568;-81
2023/11/19 07:49:31;;;;;;;4.72;4.13;;;;;;;3.11;61.08;94772.88;4179495;28;20041;-79
2023/11/19 07:51:32;;;;;;;5.47;4.53;;;;;;;3.11;60.79;94772.06;4180733;28;20053;-80
2023/11/19 07:53:34;;;;;;;6.15;4.93;;;;;;;2.97;60.96;94789.44;4180048;28;20049;-80
2023/11/19 07:55:36;;;;;;;4.80;3.85;;;;;;;2.94;60.79;94781.06;4179833;28;20126;-83
2023/11/19 07:57:43;;;;;;;4.97;4.13;;;;;;;2.99;60.61;94795.31;4180797;28;20127;-81
2023/11/19 07:59:44;;;;;;;6.40;4.38;;;;;;;2.97;60.89;94778.22;4182200;28;20444;-80
2023/11/19 08:01:47;;;;;;;4.88;3.72;;;;;;;2.94;60.39;94781.88;4181959;28;20055;-80
2023/11/19 08:03:49;;;;;;;4.78;4.28;;;;;;;2.79;61.23;94783.81;4167079;28;20370;-81
2023/11/19 08:05:57;;;;;;;6.90;4.50;;;;;;;2.87;61.20;94802.19;4179881;28;20029;-81
2023/11/19 08:07:59;;;;;;;10.40;4.55;;;;;;;2.96;60.78;94799.88;4198813;28;20029;-78
2023/11/19 08:10:01;;;;;;;6.70;5.10;;;;;;;2.93;60.84;94794.94;4199424;28;20045;-81
2023/11/19 08:12:04;;;;;;;7.05;4.82;;;;;;;2.86;60.90;94797.97;4198970;28;20033;-80
2023/11/19 08:14:05;;;;;;;5.50;4.40;;;;;;;2.87;60.56;94802.19;4190137;28;20460;-81
2023/11/19 08:16:07;;;;;;;5.78;4.32;;;;;;;2.84;60.80;94802.44;4169321;28;20413;-81
2023/11/19 08:18:09;;;;;;;5.22;4.40;;;;;;;2.87;61.25;94806.56;4180895;28;20053;-82
2023/11/19 08:20:11;;;;;;;5.15;4.57;;;;;;;2.78;60.99;94815.78;4175621;28;20037;-80
2023/11/19 08:22:13;;;;;;;5.57;4.55;;;;;;;2.76;61.67;94807.31;4171268;28;20461;-83
2023/11/19 08:24:15;;;;;;;5.50;4.43;;;;;;;2.74;61.37;94809.19;4180079;28;20048;-80
2023/11/19 08:26:17;;;;;;;7.07;4.70;;;;;;;2.76;61.80;94803.91;4177689;28;20439;-81
2023/11/19 08:28:22;;;;;;;5.00;4.18;;;;;;;2.59;61.64;94815.44;4179967;28;20049;-80
2023/11/19 08:30:24;;;;;;;6.47;4.63;;;;;;;2.71;61.84;94805.97;4180466;28;20120;-81
2023/11/19 08:32:27;;;;;;;6.15;4.47;;;;;;;2.63;61.78;94819.47;4163501;28;20089;-81
2023/11/19 08:34:29;;;;;;;5.75;4.40;;;;;;;2.65;62.04;94805.50;4180225;28;20483;-81
2023/11/19 08:36:31;;;;;;;5.35;4.07;;;;;;;2.70;61.95;94805.16;4161444;28;20112;-81
2023/11/19 08:38:33;;;;;;;5.63;4.60;;;;;;;2.80;61.76;94805.34;4180112;28;20060;-82
2023/11/19 08:40:35;;;;;;;6.20;5.18;;;;;;;2.87;61.31;94819.50;4179403;28;20095;-82
2023/11/19 08:42:39;;;;;;;6.20;5.00;;;;;;;2.97;61.18;94830.00;4178782;28;20136;-81
2023/11/19 08:44:43;;;;;;;;;;;;;;;2.94;60.45;94837.97;4179557;28;20124;-80
2023/11/19 08:46:49;;;;;;;6.03;4.47;;;;;;;2.81;60.56;94818.16;4179663;28;19962;-81
2023/11/19 08:48:50;;;;;;;5.18;3.95;;;;;;;2.88;60.61;94818.53;4179002;28;20132;-80
2023/11/19 08:50:52;;;;;;;6.13;4.45;;;;;;;2.99;60.26;94830.72;4179290;28;20122;-80
2023/11/19 08:52:54;;;;;;;5.30;4.03;;;;;;;2.94;59.98;94814.69;4180355;28;20060;-80
2023/11/19 08:54:57;;;;;;;4.90;3.65;;;;;;;3.02;59.98;94818.38;4180862;28;20072;-81
2023/11/19 08:56:59;;;;;;;6.53;4.18;;;;;;;3.04;59.73;94824.28;4168669;28;20105;-81
2023/11/19 08:59:01;;;;;;;5.32;4.20;;;;;;;3.09;59.56;94839.47;4181758;28;20149;-81
2023/11/19 09:01:03;;;;;;;6.00;4.95;;;;;;;3.25;59.67;94819.31;4184141;28;20064;-81
2023/11/19 09:03:05;;;;;;;5.32;4.82;;;;;;;3.19;59.36;94809.41;4186935;28;20123;-82
2023/11/19 09:05:08;;;;;;;6.28;4.18;;;;;;;3.40;59.36;94804.44;4183631;28;20079;-79
2023/11/19 09:07:10;;;;;;;6.00;4.63;;;;;;;3.43;58.90;94808.56;4163266;28;20103;-81
2023/11/19 09:09:12;;;;;;;5.20;4.30;;;;;;;3.38;58.84;94802.91;4182726;28;20502;-81
2023/11/19 09:11:14;;;;;;;6.75;4.22;;;;;;;3.26;59.29;94812.38;4165013;28;20045;-81
2023/11/19 09:13:16;;;;;;;5.20;4.65;;;;;;;3.16;59.31;94796.69;4183789;28;20079;-81
2023/11/19 09:15:17;;;;;;;6.05;4.63;;;;;;;3.15;59.84;94800.22;4178677;28;20072;-82
2023/11/19 09:17:19;;;;;;;6.20;4.35;;;;;;;3.25;59.66;94811.56;4164719;28;20464;-81
2023/11/19 09:19:21;;;;;;;4.30;3.88;;;;;;;3.29;58.70;94788.84;4161133;28;20053;-82
2023/11/19 09:21:23;;;;;;;6.05;4.95;;;;;;;3.15;59.31;94789.84;4161490;28;20064;-80
2023/11/19 09:23:25;;;;;;;5.32;4.22;;;;;;;3.27;59.52;94809.69;4160548;28;20104;-83
2023/11/19 09:25:27;;;;;;;6.70;4.20;;;;;;;3.40;59.30;94806.16;4175527;28;20386;-81
2023/11/19 09:27:45;;;;;;;4.45;3.75;;;;;;;3.38;58.38;94813.25;4175514;28;20053;-78
2023/11/19 09:29:48;;;;;;;6.00;4.13;;;;;;;3.40;58.82;94824.28;4172467;28;20045;-81
2023/11/19 09:31:50;;;;;;;4.45;3.83;;;;;;;3.47;58.54;94823.75;4177014;28;20056;-81
2023/11/19 09:33:52;;;;;;;4.43;3.80;;;;;;;3.33;58.29;94810.97;4179364;28;20049;-79
2023/11/19 09:35:54;;;;;;;6.20;3.85;;;;;;;3.34;59.17;94817.81;4171979;28;20352;-83
2023/11/19 09:37:56;;;;;;;5.07;4.15;;;;;;;3.36;59.44;94804.78;4170149;28;20131;-80
2023/11/19 09:39:58;;;;;;;4.65;4.05;;;;;;;3.36;58.86;94795.22;4179076;28;20049;-82
2023/11/19 09:42:00;;;;;;;4.85;4.15;;;;;;;3.31;59.43;94768.00;4177662;28;20110;-81
2023/11/19 09:44:02;;;;;;;5.43;4.50;;;;;;;3.30;59.24;94769.78;4180707;28;20132;-80